createdAt,value
2023-03-28T07:08:34.972Z,69.11
2023-03-28T07:09:36.866Z,69.97
2023-03-28T07:10:39.590Z,68.64
2023-03-28T07:11:41.006Z,69.46
2023-03-28T07:12:42.429Z,68.63
2023-03-28T07:13:43.925Z,67.55
2023-03-28T07:14:46.841Z,67.15
2023-03-28T07:15:48.222Z,67.09
2023-03-28T07:16:49.620Z,65.49
2023-03-28T07:17:51.246Z,64.70
2023-03-28T07:18:52.780Z,64.73
2023-03-28T07:19:54.343Z,64.39
2023-03-28T07:21:04.089Z,63.69
2023-03-28T07:22:06.228Z,62.64
2023-03-28T07:23:07.658Z,63.30
2023-03-28T07:24:09.350Z,63.45
2023-03-28T07:25:11.225Z,63.31
2023-03-28T07:26:14.076Z,63.34
2023-03-28T07:27:16.940Z,62.47
2023-03-28T07:28:18.884Z,62.66
2023-03-28T07:29:20.488Z,63.52
2023-03-28T07:30:21.955Z,62.41
2023-03-28T07:31:24.591Z,62.29
2023-03-28T07:32:30.974Z,61.47
2023-03-28T07:33:38.249Z,61.54
2023-03-28T07:34:40.155Z,60.83
2023-03-28T07:35:42.017Z,60.71
2023-03-28T07:36:43.519Z,59.73
2023-03-28T07:37:44.903Z,59.93
2023-03-28T07:38:48.429Z,59.07
2023-03-28T07:39:50.915Z,59.23
2023-03-28T07:40:52.385Z,58.18
2023-03-28T07:41:53.950Z,58.78
2023-03-28T07:42:55.354Z,58.03
2023-03-28T07:43:56.986Z,58.86
2023-03-28T07:44:58.494Z,57.66
2023-03-28T07:46:06.380Z,57.04
2023-03-28T07:47:09.021Z,57.16
2023-03-28T07:48:10.855Z,56.24
2023-03-28T07:49:12.994Z,57.52
2023-03-28T07:50:14.496Z,58.79
2023-03-28T07:51:16.249Z,57.58
2023-03-28T07:52:18.189Z,55.42
2023-03-28T07:53:19.540Z,55.17
2023-03-28T07:54:21.641Z,55.45
2023-03-28T07:55:24.710Z,56.18
2023-03-28T07:56:27.052Z,55.37
2023-03-28T07:57:28.650Z,54.29
2023-03-28T07:58:30.479Z,54.82
2023-03-28T07:59:31.884Z,54.21
2023-03-28T08:00:33.455Z,55.79
2023-03-28T08:01:34.834Z,52.75
2023-03-28T08:02:36.294Z,52.54
2023-03-28T08:03:38.554Z,51.27
2023-03-28T08:04:40.259Z,51.06
2023-03-28T08:05:43.194Z,50.68
2023-03-28T08:06:45.656Z,51.70
2023-03-28T08:07:47.269Z,50.64
2023-03-28T08:08:48.866Z,51.73
2023-03-28T08:09:51.023Z,52.70
2023-03-28T08:10:52.422Z,52.28
2023-03-28T08:11:53.790Z,51.11
2023-03-28T08:12:55.216Z,51.32
2023-03-28T08:13:56.627Z,50.26
2023-03-28T08:14:58.113Z,49.65
2023-03-28T08:15:59.659Z,51.58
2023-03-28T08:17:01.143Z,49.78
2023-03-28T08:18:02.838Z,50.51
2023-03-28T08:19:11.243Z,52.60
2023-03-28T08:20:13.990Z,50.03
2023-03-28T08:21:15.761Z,50.00
2023-03-28T08:22:17.176Z,49.56
2023-03-28T08:23:18.698Z,50.35
2023-03-28T08:24:32.983Z,49.98
2023-03-28T08:25:37.172Z,48.76
2023-03-28T08:26:39.057Z,49.41
2023-03-28T08:27:40.969Z,49.38
2023-03-28T08:28:42.497Z,51.62
2023-03-28T08:29:43.932Z,51.72
2023-03-28T08:30:45.736Z,51.80
2023-03-28T08:31:48.007Z,51.59
2023-03-28T08:32:51.146Z,52.10
2023-03-28T08:33:53.855Z,53.29
2023-03-28T08:34:57.661Z,52.73
2023-03-28T08:35:59.149Z,48.14
2023-03-28T08:37:00.735Z,46.87
2023-03-28T08:38:02.184Z,46.81
2023-03-28T08:39:05.263Z,48.14
2023-03-28T08:40:10.300Z,47.50
2023-03-28T08:41:18.639Z,48.36
2023-03-28T08:42:38.251Z,49.80
2023-03-28T08:44:13.948Z,48.56
2023-03-28T08:45:21.393Z,46.26
2023-03-28T08:46:25.528Z,48.09
2023-03-28T08:47:30.840Z,48.99
2023-03-28T08:48:40.630Z,49.88
2023-03-28T08:49:46.724Z,49.61
2023-03-28T08:51:23.700Z,50.40
2023-03-28T08:52:25.814Z,51.39
2023-03-28T08:53:43.840Z,51.35
2023-03-28T08:54:49.819Z,50.32
2023-03-28T08:55:53.690Z,52.33
2023-03-28T08:56:58.001Z,54.50
2023-03-28T08:57:59.985Z,55.20
2023-03-28T08:59:12.596Z,55.14
2023-03-28T09:00:24.524Z,54.54
2023-03-28T09:01:29.418Z,55.71
2023-03-28T09:02:31.514Z,57.08
2023-03-28T09:03:41.640Z,57.16
2023-03-28T09:04:43.287Z,57.03
2023-03-28T09:05:48.047Z,58.36
2023-03-28T09:07:00.216Z,57.29
2023-03-28T09:08:19.698Z,56.45
2023-03-28T09:09:39.131Z,57.02
2023-03-28T09:10:45.313Z,56.40
2023-03-28T09:11:54.883Z,57.07
2023-03-28T09:13:04.350Z,55.99
2023-03-28T09:14:13.433Z,56.04
2023-03-28T09:15:37.488Z,54.48
2023-03-28T09:17:20.690Z,54.85
2023-03-28T09:18:42.993Z,55.02
2023-03-28T09:20:11.479Z,54.72
2023-03-28T09:21:27.680Z,54.92
2023-03-28T09:22:37.071Z,56.59
2023-03-28T09:23:39.274Z,55.75
2023-03-28T09:24:58.503Z,56.56
2023-03-28T09:26:17.644Z,54.52
2023-03-28T09:27:29.668Z,56.16
2023-03-28T09:29:03.632Z,56.03
2023-03-28T09:30:26.694Z,55.30
2023-03-28T09:31:33.353Z,55.21
2023-03-28T09:32:38.384Z,56.54
2023-03-28T09:33:43.681Z,56.68
2023-03-28T09:34:49.355Z,55.11
2023-03-28T09:35:56.106Z,53.97
2023-03-28T09:37:13.998Z,54.99
2023-03-28T09:38:38.254Z,53.46
2023-03-28T09:39:49.578Z,53.97
2023-03-28T09:40:55.083Z,54.46
2023-03-28T09:42:04.093Z,56.19
2023-03-28T09:43:22.214Z,56.50
2023-03-28T09:44:30.224Z,53.07
2023-03-28T09:45:53.656Z,52.50
2023-03-28T09:46:57.604Z,53.72
2023-03-28T09:48:00.297Z,54.45
2023-03-28T09:49:02.121Z,55.69
2023-03-28T09:50:12.570Z,53.89
2023-03-28T09:51:17.882Z,53.54
2023-03-28T09:52:21.267Z,53.81
2023-03-28T09:53:33.142Z,54.88
2023-03-28T09:54:35.632Z,56.33
2023-03-28T09:55:37.189Z,55.92
2023-03-28T09:56:41.957Z,55.62
2023-03-28T09:58:06.638Z,56.26
2023-03-28T09:59:31.966Z,56.74
2023-03-28T10:00:41.229Z,57.29
2023-03-28T10:01:45.315Z,58.18
2023-03-28T10:02:52.893Z,58.13
2023-03-28T10:03:55.886Z,58.09
2023-03-28T10:04:57.699Z,59.14
2023-03-28T10:06:01.532Z,58.82
2023-03-28T10:07:09.048Z,57.98
2023-03-28T10:08:25.796Z,57.97
2023-03-28T10:09:31.597Z,59.02
2023-03-28T10:10:32.980Z,58.22
2023-03-28T10:11:48.592Z,57.82
2023-03-28T10:12:57.118Z,57.58
2023-03-28T10:13:58.669Z,56.24
2023-03-28T10:15:04.677Z,52.29
2023-03-28T10:16:07.034Z,51.72
2023-03-28T10:17:31.471Z,49.96
2023-03-28T10:18:33.687Z,48.66
2023-03-28T10:19:39.430Z,48.66
2023-03-28T10:20:41.443Z,44.66
2023-03-28T10:21:48.123Z,43.27
2023-03-28T10:22:51.949Z,45.20
2023-03-28T10:24:03.920Z,45.27
2023-03-28T10:25:07.297Z,45.83
2023-03-28T10:26:13.036Z,44.12
2023-03-28T10:27:24.208Z,41.31
2023-03-28T10:28:35.123Z,42.47
2023-03-28T10:29:37.186Z,40.82
2023-03-28T10:30:38.889Z,41.62
2023-03-28T10:31:47.820Z,42.79
2023-03-28T10:33:17.611Z,43.69
2023-03-28T10:34:31.013Z,43.44
2023-03-28T10:35:33.979Z,43.54
2023-03-28T10:36:41.483Z,44.16
2023-03-28T10:37:43.064Z,46.15
2023-03-28T10:38:47.573Z,47.44
2023-03-28T10:40:06.759Z,47.74
2023-03-28T10:41:24.608Z,47.09
2023-03-28T10:42:27.467Z,47.79
2023-03-28T10:43:42.024Z,47.41
2023-03-28T10:44:43.538Z,47.85
2023-03-28T10:45:51.014Z,48.53
2023-03-28T10:46:53.084Z,46.16
2023-03-28T10:47:59.073Z,45.69
2023-03-28T10:49:07.072Z,43.27
2023-03-28T10:50:22.184Z,42.68
2023-03-28T10:51:25.855Z,41.32
2023-03-28T10:52:53.795Z,41.18
2023-03-28T10:54:20.625Z,40.75
2023-03-28T10:55:27.335Z,40.80
2023-03-28T10:56:34.908Z,40.01
2023-03-28T10:57:39.074Z,41.89
2023-03-28T10:59:05.326Z,40.85
2023-03-28T11:00:12.151Z,40.18
2023-03-28T11:01:21.194Z,41.29
2023-03-28T11:02:51.655Z,41.46
2023-03-28T11:04:24.275Z,41.42
2023-03-28T11:05:41.254Z,40.72
2023-03-28T11:07:04.047Z,41.13
2023-03-28T11:08:44.745Z,38.61
2023-03-28T11:09:51.925Z,39.57
2023-03-28T11:11:20.255Z,39.82
2023-03-28T11:14:21.746Z,39.65
2023-03-28T11:14:39.281Z,39.58
2023-03-28T11:15:45.871Z,40.97
2023-03-28T11:16:58.946Z,41.03
2023-03-28T11:18:19.961Z,41.44
2023-03-28T11:19:39.996Z,42.62
2023-03-28T11:20:50.726Z,44.49
2023-03-28T11:22:26.628Z,44.73
2023-03-28T11:23:38.623Z,45.16
2023-03-28T11:24:57.204Z,45.13
2023-03-28T11:26:12.995Z,44.72
2023-03-28T11:27:48.461Z,43.14
2023-03-28T11:29:30.404Z,43.40
2023-03-28T11:30:41.007Z,44.14
2023-03-28T11:32:07.148Z,43.95
2023-03-28T11:33:14.094Z,42.11
2023-03-28T11:34:32.535Z,41.81
2023-03-28T11:35:34.019Z,40.79
2023-03-28T11:36:49.797Z,40.62
2023-03-28T11:38:22.156Z,40.40
2023-03-28T11:39:49.286Z,43.20
2023-03-28T11:40:56.727Z,44.21
2023-03-28T11:42:05.367Z,43.15
2023-03-28T11:43:13.571Z,40.03
2023-03-28T11:44:30.559Z,40.33
2023-03-28T11:45:50.184Z,41.85
2023-03-28T11:47:07.503Z,41.00
2023-03-28T11:48:20.052Z,41.72
2023-03-28T11:49:36.115Z,41.66
2023-03-28T11:51:08.066Z,41.99
2023-03-28T11:52:26.200Z,41.52
2023-03-28T11:53:34.745Z,42.46
2023-03-28T11:54:49.364Z,43.49
2023-03-28T11:55:58.395Z,44.27
2023-03-28T11:57:06.942Z,43.50
2023-03-28T11:58:17.648Z,43.10
2023-03-28T11:59:28.947Z,42.87
2023-03-28T12:00:42.486Z,42.76
2023-03-28T12:01:49.202Z,42.83
2023-03-28T12:02:56.610Z,42.94
2023-03-28T12:04:09.539Z,44.90
2023-03-28T12:05:32.880Z,46.13
2023-03-28T12:06:55.872Z,44.68
2023-03-28T12:08:39.244Z,43.96
2023-03-28T12:09:49.485Z,43.98
2023-03-28T12:10:57.233Z,45.15
2023-03-28T12:12:01.901Z,44.62
2023-03-28T12:13:06.827Z,43.83
2023-03-28T12:14:33.348Z,44.18
2023-03-28T12:15:43.198Z,43.21
2023-03-28T12:16:48.065Z,43.28
2023-03-28T12:17:58.979Z,42.70
2023-03-28T12:19:03.553Z,42.13
2023-03-28T12:20:12.912Z,41.64
2023-03-28T12:21:24.060Z,40.69
2023-03-28T12:22:32.636Z,39.52
2023-03-28T12:23:41.832Z,39.81
2023-03-28T12:25:00.224Z,40.76
2023-03-28T12:26:14.478Z,41.54
2023-03-28T12:27:25.579Z,41.99
2023-03-28T12:28:39.964Z,42.63
2023-03-28T12:29:56.833Z,42.18
2023-03-28T12:31:20.095Z,40.81
2023-03-28T12:32:23.616Z,41.00
2023-03-28T12:33:45.942Z,40.66
2023-03-28T12:35:07.268Z,41.34
2023-03-28T12:36:34.077Z,40.60
2023-03-28T12:37:51.501Z,40.84
2023-03-28T12:38:59.109Z,39.48
2023-03-28T12:40:00.550Z,40.38
2023-03-28T12:41:05.592Z,40.40
2023-03-28T12:42:11.932Z,39.38
2023-03-28T12:43:16.989Z,40.04
2023-03-28T12:44:24.522Z,41.57
2023-03-28T12:45:38.614Z,39.65
2023-03-28T12:46:46.735Z,39.36
2023-03-28T12:47:54.559Z,37.41
2023-03-28T12:49:02.876Z,38.68
2023-03-28T12:50:40.949Z,38.81
2023-03-28T12:51:53.397Z,40.38
2023-03-28T12:52:56.448Z,39.68
2023-03-28T12:54:08.273Z,39.11
2023-03-28T12:55:24.931Z,38.17
2023-03-28T12:56:27.215Z,39.28
2023-03-28T12:57:40.876Z,37.46
2023-03-28T12:58:46.206Z,37.59
2023-03-28T13:00:26.688Z,38.08
2023-03-28T13:01:57.078Z,37.05
2023-03-28T13:03:07.711Z,37.46
2023-03-28T13:04:28.046Z,38.58
2023-03-28T13:05:52.189Z,40.01
2023-03-28T13:07:17.802Z,40.37
2023-03-28T13:08:42.766Z,39.50
2023-03-28T13:09:46.839Z,39.34
2023-03-28T13:11:12.999Z,41.23
2023-03-28T13:12:52.371Z,40.56
2023-03-28T13:14:03.889Z,41.12
2023-03-28T13:15:26.094Z,40.42
2023-03-28T13:16:45.146Z,40.43
2023-03-28T13:17:49.050Z,40.02
2023-03-28T13:19:10.922Z,38.92
2023-03-28T13:20:15.518Z,39.16
2023-03-28T13:21:49.510Z,39.74
2023-03-28T13:23:02.069Z,40.31
2023-03-28T13:24:03.546Z,40.23
2023-03-28T13:25:21.252Z,39.82
2023-03-28T13:26:23.746Z,40.18
2023-03-28T13:27:32.560Z,40.29
2023-03-28T13:28:41.950Z,38.75
2023-03-28T13:29:52.314Z,39.36
2023-03-28T13:31:09.301Z,39.67
2023-03-28T13:32:17.098Z,39.24
2023-03-28T13:33:26.858Z,39.61
2023-03-28T13:34:33.948Z,39.07
2023-03-28T13:35:40.262Z,38.96
2023-03-28T13:36:50.778Z,39.12
2023-03-28T13:37:52.198Z,39.04
2023-03-28T13:39:08.078Z,39.58
2023-03-28T13:40:54.544Z,39.36
2023-03-28T13:41:58.064Z,38.88
2023-03-28T13:43:00.182Z,38.60
2023-03-28T13:44:17.638Z,37.91
2023-03-28T13:45:23.020Z,37.15
2023-03-28T13:46:45.498Z,38.30
2023-03-28T13:47:53.052Z,37.33
2023-03-28T13:49:11.284Z,36.81
2023-03-28T13:50:37.580Z,36.13
2023-03-28T13:51:52.147Z,36.49
2023-03-28T13:52:53.567Z,37.50
2023-03-28T13:53:55.014Z,37.91
2023-03-28T13:55:04.878Z,39.18
2023-03-28T13:56:21.727Z,37.46
2023-03-28T13:57:26.691Z,36.55
2023-03-28T13:58:29.058Z,37.49
2023-03-28T13:59:37.039Z,38.02
2023-03-28T14:00:38.912Z,37.60
2023-03-28T14:01:54.059Z,37.30
2023-03-28T14:03:03.652Z,37.21
2023-03-28T14:04:16.296Z,36.84
2023-03-28T14:05:29.224Z,37.11
2023-03-28T14:06:30.725Z,38.25
2023-03-28T14:07:32.208Z,38.70
2023-03-28T14:08:33.729Z,37.38
2023-03-28T14:09:35.208Z,38.34
2023-03-28T14:10:42.952Z,38.19
2023-03-28T14:11:45.147Z,39.37
2023-03-28T14:12:46.877Z,38.51
2023-03-28T14:13:50.051Z,38.82
2023-03-28T14:14:57.250Z,39.57
2023-03-28T14:15:58.879Z,39.65
2023-03-28T14:17:03.610Z,38.87
2023-03-28T14:18:07.302Z,38.47
2023-03-28T14:19:13.030Z,37.78
2023-03-28T14:20:17.914Z,37.52
2023-03-28T14:21:24.031Z,37.92
2023-03-28T14:22:30.902Z,37.03
2023-03-28T14:23:35.867Z,37.71
2023-03-28T14:24:37.378Z,38.03
2023-03-28T14:25:38.791Z,38.76
2023-03-28T14:26:40.180Z,41.04
2023-03-28T14:27:45.338Z,40.13
2023-03-28T14:28:47.200Z,39.39
2023-03-28T14:29:56.845Z,38.98
2023-03-28T14:30:59.694Z,39.36
2023-03-28T14:32:07.548Z,39.20
2023-03-28T14:33:14.393Z,39.93
2023-03-28T14:34:25.875Z,40.59
2023-03-28T14:35:35.805Z,41.29
2023-03-28T14:37:06.129Z,42.49
2023-03-28T14:38:26.469Z,42.98
2023-03-28T14:39:30.371Z,41.71
2023-03-28T14:40:33.475Z,41.22
2023-03-28T14:41:36.443Z,40.12
2023-03-28T14:42:37.870Z,39.38
2023-03-28T14:43:39.721Z,40.88
2023-03-28T14:44:43.791Z,39.88
2023-03-28T14:45:51.702Z,39.20
2023-03-28T14:46:57.610Z,40.29
2023-03-28T14:47:59.531Z,41.18
2023-03-28T14:49:05.153Z,40.63
2023-03-28T14:50:08.179Z,40.18
2023-03-28T14:51:12.630Z,39.27
2023-03-28T14:52:17.633Z,39.07
2023-03-28T14:53:27.779Z,38.26
2023-03-28T14:54:37.654Z,39.62
2023-03-28T14:55:41.777Z,40.00
2023-03-28T14:56:45.471Z,40.77
2023-03-28T14:57:56.362Z,40.00
2023-03-28T14:59:02.223Z,39.55
2023-03-28T15:00:12.401Z,39.61
2023-03-28T15:01:23.117Z,38.69
2023-03-28T15:02:28.762Z,37.69
2023-03-28T15:03:34.924Z,37.34
2023-03-28T15:04:36.677Z,37.81
2023-03-28T15:05:38.144Z,37.40
2023-03-28T15:06:39.732Z,37.38
2023-03-28T15:07:42.515Z,36.91
2023-03-28T15:08:45.027Z,37.24
2023-03-28T15:10:10.586Z,36.55
2023-03-28T15:11:37.086Z,37.52
2023-03-28T15:12:50.186Z,38.02
2023-03-28T15:14:28.966Z,38.04
2023-03-28T15:15:35.133Z,38.70
2023-03-28T15:16:40.638Z,38.68
2023-03-28T15:17:43.632Z,38.75
2023-03-28T15:18:51.726Z,38.60
2023-03-28T15:19:58.315Z,39.04
2023-03-28T15:21:03.622Z,38.63
2023-03-28T15:22:14.886Z,38.28
2023-03-28T15:23:23.996Z,38.59
2023-03-28T15:24:28.069Z,38.75
2023-03-28T15:25:31.266Z,38.27
2023-03-28T15:26:41.903Z,38.87
2023-03-28T15:27:48.939Z,38.72
2023-03-28T15:28:51.001Z,37.65
2023-03-28T15:29:53.063Z,39.02
2023-03-28T15:30:58.434Z,39.50
2023-03-28T15:32:15.399Z,40.94
2023-03-28T15:33:25.953Z,39.99
2023-03-28T15:34:27.885Z,39.28
2023-03-28T15:35:36.734Z,39.29
2023-03-28T15:36:48.968Z,38.85
2023-03-28T15:37:50.823Z,39.58
2023-03-28T15:39:00.563Z,39.51
2023-03-28T15:40:22.950Z,39.83
2023-03-28T15:41:29.029Z,39.90
2023-03-28T15:42:34.737Z,39.61
2023-03-28T15:43:54.018Z,40.86
2023-03-28T15:44:58.462Z,41.04
2023-03-28T15:46:02.203Z,40.83
2023-03-28T15:47:13.257Z,41.27
2023-03-28T15:48:17.846Z,42.54
2023-03-28T15:49:19.321Z,42.27
2023-03-28T15:50:33.316Z,42.58
2023-03-28T15:51:48.639Z,40.69
2023-03-28T15:52:56.386Z,40.60
2023-03-28T15:54:01.262Z,40.52
2023-03-28T15:55:05.659Z,39.68
2023-03-28T15:56:17.007Z,39.47
2023-03-28T15:57:21.673Z,39.80
2023-03-28T15:58:23.289Z,41.94
2023-03-28T15:59:42.220Z,41.95
2023-03-28T16:00:47.636Z,42.66
2023-03-28T16:01:49.058Z,43.86
2023-03-28T16:02:50.504Z,42.95
2023-03-28T16:04:15.633Z,42.88
2023-03-28T16:05:17.076Z,41.72
2023-03-28T16:06:31.623Z,41.64
2023-03-28T16:07:48.209Z,42.74
2023-03-28T16:09:14.802Z,41.39
2023-03-28T16:10:18.742Z,41.66
2023-03-28T16:11:24.049Z,40.76
2023-03-28T16:12:26.611Z,41.08
2023-03-28T16:13:29.390Z,41.86
2023-03-28T16:14:31.079Z,41.40
2023-03-28T16:15:32.746Z,41.25
2023-03-28T16:16:34.299Z,41.18
2023-03-28T16:17:36.304Z,40.93
2023-03-28T16:18:37.743Z,41.01
2023-03-28T16:19:39.253Z,41.12
2023-03-28T16:20:40.767Z,41.07
2023-03-28T16:21:42.099Z,40.50
2023-03-28T16:22:44.595Z,40.47
2023-03-28T16:23:46.296Z,41.39
2023-03-28T16:24:52.257Z,41.72
2023-03-28T16:25:53.822Z,41.85
2023-03-28T16:26:55.515Z,41.29
2023-03-28T16:27:57.749Z,41.20
2023-03-28T16:28:59.122Z,41.49
2023-03-28T16:30:00.666Z,41.05
2023-03-28T16:31:02.174Z,41.06
2023-03-28T16:32:03.855Z,40.69
2023-03-28T16:33:08.247Z,41.26
2023-03-28T16:34:10.286Z,42.04
2023-03-28T16:35:12.343Z,42.11
2023-03-28T16:36:13.764Z,42.15
2023-03-28T16:37:15.407Z,42.82
2023-03-28T16:38:16.864Z,42.60
2023-03-28T16:39:18.199Z,42.96
2023-03-28T16:40:20.172Z,43.24
2023-03-28T16:41:21.863Z,43.21
2023-03-28T16:42:24.508Z,42.99
2023-03-28T16:43:26.176Z,43.74
2023-03-28T16:44:27.580Z,43.89
2023-03-28T16:45:30.461Z,43.37
2023-03-28T16:46:32.127Z,43.50
2023-03-28T16:47:33.630Z,43.65
2023-03-28T16:48:35.628Z,44.15
2023-03-28T16:49:37.123Z,44.59
2023-03-28T16:50:38.625Z,44.80
2023-03-28T16:51:40.001Z,44.52
2023-03-28T16:52:41.829Z,44.49
2023-03-28T16:53:43.262Z,44.59
2023-03-28T16:54:48.342Z,44.93
2023-03-28T16:55:51.240Z,44.79
